• Join FlightAware (Why Join?)
  • Login
  • US Flag 
12:15AM EDT


 

Airport Tracker/Info


-or-


 

Live Flight TrackerFlight Track Log ✈ EJM916 ✈ 07-Jul-2013 ✈ KFAY - KCHS

Flight Track Log - Related Links

Times and Time Zones

All times are in EDT time to prevent confusion due to time zone crossing. See the EJM916 flight status page for this flight to view local times or setup timezone preferences in your user account.

Time Position Orientation Groundspeed Altitude Reporting Facility
EDT Latitude Longitude Course Direction KTS MPH feet Rate Location/Type
02:35PM 34.9078 -78.9300 203° Southwest 212 244 5,700  Level Washington Center
02:36PM 34.8422 -78.9578 199° South 255 293 9,400 3,360 Climbing Washington Center
02:37PM 34.7514 -78.9944 198° South 303 349 12,400 2,340 Climbing Washington Center
02:39PM 34.5767 -79.0447 193° South 372 428 16,000 1,200 Climbing Jacksonville Center
02:40PM 34.4714 -79.0769 194° South 386 444 15,900 -60 Descending Jacksonville Center
02:41PM 34.3636 -79.1019 191° South 397 457 15,900  Level Jacksonville Center
02:42PM 34.2539 -79.1269 191° South 402 463 15,900  Level Jacksonville Center
02:43PM 34.1442 -79.1542 192° South 402 463 15,900  Level Jacksonville Center
02:44PM 34.0342 -79.1814 192° South 402 463 15,900  Level Jacksonville Center
02:45PM 33.9264 -79.2058 191° South 407 468 15,900  Level Jacksonville Center
02:47PM 33.7183 -79.2897 199° South 399 459 15,900 -300 Level Jacksonville Center
02:48PM 33.6303 -79.3556 212° Southwest 387 445 15,100 -1,140 Descending Jacksonville Center
02:49PM 33.5406 -79.4239 212° Southwest 387 445 13,700 -1,380 Descending Jacksonville Center
02:50PM 33.4525 -79.4894 212° Southwest 387 445 12,400 -1,320 Descending Jacksonville Center
02:51PM 33.3667 -79.5575 214° Southwest 381 438 11,100 -1,140 Descending Jacksonville Center
02:52PM 33.3019 -79.6394 227° Southwest 371 427 10,200 -1,200 Descending Jacksonville Center
02:53PM 33.2475 -79.7111 228° Southwest 328 377 8,800 -1,500 Descending Jacksonville Center
02:54PM 33.1992 -79.7797 230° Southwest 297 342 7,300 -1,800 Descending Jacksonville Center
02:55PM 33.1506 -79.8483 230° Southwest 284 327 5,200 -1,800 Descending Jacksonville Center
02:56PM 33.1022 -79.9169 230° Southwest 269 310 3,700 -1,500 Descending Jacksonville Center
02:57PM 33.0447 -79.9611 213° Southwest 255 293 2,200 -1,080 Descending Jacksonville Center
02:58PM 32.9911 -79.9900 204° Southwest 234 269 1,600 -660 Descending Jacksonville Center
02:59PM 32.9500 -80.0136 206° Southwest 200 230 900 -720 Descending Jacksonville Center
03:01PM 32.8986 -80.0405 203° Southwest  Level Estimated
03:08PM 32.8986 -80.0405 203° Southwest  Level Estimated